createdAt,value
2022-09-06T00:01:16.063Z,17.02
2022-09-06T00:03:42.961Z,17.00
2022-09-06T00:06:19.468Z,17.02
2022-09-06T00:08:47.808Z,17.07
2022-09-06T00:11:15.398Z,17.12
2022-09-06T00:13:42.644Z,17.07
2022-09-06T00:16:12.991Z,17.09
2022-09-06T00:18:39.729Z,17.15
2022-09-06T00:21:16.066Z,17.17
2022-09-06T00:23:42.641Z,17.05
2022-09-06T00:26:09.187Z,16.97
2022-09-06T00:28:35.747Z,16.89
2022-09-06T00:31:20.425Z,16.87
2022-09-06T00:33:47.008Z,16.69
2022-09-06T00:36:14.228Z,16.69
2022-09-06T00:38:41.629Z,16.78
2022-09-06T00:41:10.553Z,16.92
2022-09-06T00:43:37.538Z,16.68
2022-09-06T00:46:06.001Z,16.94
2022-09-06T00:48:33.238Z,16.81
2022-09-06T00:51:02.875Z,17.10
2022-09-06T00:53:31.002Z,17.35
2022-09-06T00:55:57.877Z,17.38
2022-09-06T00:58:25.398Z,17.48
2022-09-06T01:00:51.964Z,17.55
2022-09-06T01:03:19.520Z,17.71
2022-09-06T01:06:10.094Z,17.76
2022-09-06T01:08:48.831Z,17.68
2022-09-06T01:11:46.408Z,17.56
2022-09-06T01:14:51.556Z,17.69
2022-09-06T01:17:41.926Z,17.47
2022-09-06T01:20:34.330Z,17.24
2022-09-06T01:23:28.823Z,17.02
2022-09-06T01:26:20.649Z,16.51
2022-09-06T01:28:48.310Z,16.31
2022-09-06T01:31:48.297Z,16.03
2022-09-06T01:34:24.182Z,15.95
2022-09-06T01:37:09.474Z,16.02
2022-09-06T01:39:37.898Z,16.41
2022-09-06T01:42:12.116Z,16.65
2022-09-06T01:44:43.758Z,16.84
2022-09-06T01:47:35.495Z,16.96
2022-09-06T01:50:16.869Z,17.00
2022-09-06T01:53:04.034Z,17.03
2022-09-06T01:55:39.204Z,17.02
2022-09-06T01:58:05.614Z,17.16
2022-09-06T02:00:40.610Z,17.09
2022-09-06T02:03:31.577Z,17.13
2022-09-06T02:06:09.391Z,17.20
2022-09-06T02:08:41.754Z,17.30
2022-09-06T02:11:09.370Z,17.32
2022-09-06T02:13:49.916Z,16.78
2022-09-06T02:16:21.385Z,16.93
2022-09-06T02:18:53.972Z,17.06
2022-09-06T02:21:30.342Z,17.13
2022-09-06T02:24:00.537Z,17.14
2022-09-06T02:26:30.503Z,17.17
2022-09-06T02:28:57.601Z,17.04
2022-09-06T02:31:30.354Z,17.16
2022-09-06T02:33:57.557Z,17.10
2022-09-06T02:36:24.544Z,17.09
2022-09-06T02:38:51.654Z,17.10
2022-09-06T02:41:22.613Z,17.13
2022-09-06T02:43:49.213Z,17.21
2022-09-06T02:46:16.601Z,17.10
2022-09-06T02:48:43.143Z,17.15
2022-09-06T02:51:10.061Z,17.22
2022-09-06T02:53:36.721Z,17.05
2022-09-06T02:56:03.692Z,17.10
2022-09-06T02:58:30.251Z,16.87
2022-09-06T03:00:56.814Z,16.88
2022-09-06T03:03:23.734Z,16.97
2022-09-06T03:05:53.288Z,16.99
2022-09-06T03:08:21.474Z,16.96
2022-09-06T03:10:56.183Z,17.04
2022-09-06T03:13:23.877Z,16.98
2022-09-06T03:15:52.536Z,17.00
2022-09-06T03:18:19.416Z,16.98
2022-09-06T03:20:46.058Z,16.90
2022-09-06T03:23:13.537Z,16.84
2022-09-06T03:25:40.056Z,16.89
2022-09-06T03:28:06.523Z,16.94
2022-09-06T03:30:33.065Z,16.96
2022-09-06T03:33:02.584Z,16.66
2022-09-06T03:35:29.577Z,16.65
2022-09-06T03:37:56.049Z,16.59
2022-09-06T03:40:22.604Z,16.60
2022-09-06T03:42:49.033Z,16.58
2022-09-06T03:45:16.741Z,16.43
2022-09-06T03:47:43.151Z,16.43
2022-09-06T03:50:09.914Z,16.50
2022-09-06T03:52:36.406Z,16.29
2022-09-06T03:55:03.754Z,16.40
2022-09-06T03:57:30.177Z,16.37
2022-09-06T03:59:56.683Z,16.43
2022-09-06T04:02:23.241Z,16.44
2022-09-06T04:04:49.728Z,16.40
2022-09-06T04:07:16.129Z,16.39
2022-09-06T04:09:42.621Z,16.30
2022-09-06T04:12:09.167Z,16.24
2022-09-06T04:14:35.572Z,16.19
2022-09-06T04:17:02.042Z,16.18
2022-09-06T04:19:28.519Z,15.93
2022-09-06T04:21:55.246Z,15.95
2022-09-06T04:24:21.659Z,15.89
2022-09-06T04:26:48.174Z,15.91
2022-09-06T04:29:14.608Z,15.93
2022-09-06T04:31:41.123Z,16.01
2022-09-06T04:34:07.763Z,16.06
2022-09-06T04:36:34.393Z,15.97
2022-09-06T04:39:00.810Z,15.91
2022-09-06T04:41:27.264Z,15.72
2022-09-06T04:43:54.032Z,15.84
2022-09-06T04:46:25.167Z,15.89
2022-09-06T04:48:53.605Z,15.91
2022-09-06T04:51:21.449Z,15.89
2022-09-06T04:53:48.362Z,15.81
2022-09-06T04:56:18.082Z,15.82
2022-09-06T04:58:46.508Z,15.79
2022-09-06T05:01:13.498Z,15.72
2022-09-06T05:03:40.069Z,15.79
2022-09-06T05:06:09.294Z,15.80
2022-09-06T05:08:42.335Z,15.86
2022-09-06T05:11:11.041Z,15.79
2022-09-06T05:13:37.773Z,15.77
2022-09-06T05:16:06.880Z,15.74
2022-09-06T05:18:33.630Z,15.68
2022-09-06T05:21:00.722Z,15.55
2022-09-06T05:23:28.035Z,15.47
2022-09-06T05:25:54.500Z,15.54
2022-09-06T05:28:21.490Z,15.58
2022-09-06T05:30:47.954Z,15.61
2022-09-06T05:33:20.202Z,15.79
2022-09-06T05:35:46.674Z,15.94
2022-09-06T05:38:13.094Z,16.09
2022-09-06T05:40:39.562Z,16.07
2022-09-06T05:43:06.174Z,16.06
2022-09-06T05:45:32.680Z,16.11
2022-09-06T05:47:59.193Z,16.08
2022-09-06T05:50:25.696Z,16.04
2022-09-06T05:52:53.950Z,15.84
2022-09-06T05:55:20.405Z,15.94
2022-09-06T05:57:46.804Z,16.12
2022-09-06T06:00:13.701Z,16.51
2022-09-06T06:02:40.413Z,16.98
2022-09-06T06:05:07.914Z,17.26
2022-09-06T06:07:34.630Z,17.38
2022-09-06T06:10:01.102Z,17.06
2022-09-06T06:12:27.525Z,17.46
2022-09-06T06:14:54.502Z,17.64
2022-09-06T06:17:20.993Z,17.86
2022-09-06T06:19:47.511Z,18.11
2022-09-06T06:22:14.006Z,18.40
2022-09-06T06:24:40.472Z,18.38
2022-09-06T06:27:07.531Z,18.97
2022-09-06T06:29:33.992Z,19.12
2022-09-06T06:32:00.484Z,19.04
2022-09-06T06:34:27.024Z,18.92
2022-09-06T06:36:53.457Z,18.80
2022-09-06T06:39:20.016Z,18.68
2022-09-06T06:41:47.813Z,18.57
2022-09-06T06:44:40.309Z,18.50
2022-09-06T06:47:07.091Z,18.41
2022-09-06T06:49:33.654Z,18.39
2022-09-06T06:52:00.160Z,18.36
2022-09-06T06:54:26.685Z,18.34
2022-09-06T06:56:53.098Z,18.29
2022-09-06T06:59:20.502Z,18.38
2022-09-06T07:01:47.056Z,18.43
2022-09-06T07:04:14.186Z,18.56
2022-09-06T07:12:29.465Z,19.62
2022-09-06T07:14:55.892Z,19.80
2022-09-06T07:17:22.310Z,20.07
2022-09-06T07:22:37.034Z,20.45
2022-09-06T07:25:05.042Z,20.85
2022-09-06T07:27:47.745Z,21.29
2022-09-06T07:30:15.323Z,21.33
2022-09-06T07:32:41.841Z,21.55
2022-09-06T07:35:08.887Z,21.57
2022-09-06T07:37:35.405Z,21.46
2022-09-06T07:40:03.180Z,20.74
2022-09-06T07:42:36.485Z,20.99
2022-09-06T07:45:04.547Z,21.51
2022-09-06T07:55:32.994Z,22.74
2022-09-06T07:57:59.441Z,22.35
2022-09-06T08:00:26.298Z,21.93
2022-09-06T08:02:52.886Z,22.02
2022-09-06T08:10:52.329Z,22.10
2022-09-06T08:13:18.784Z,22.18
2022-09-06T08:15:45.290Z,22.40
2022-09-06T08:18:11.973Z,22.97
2022-09-06T08:20:38.456Z,23.48
2022-09-06T08:23:12.402Z,23.88
2022-09-06T08:25:38.819Z,24.14
2022-09-06T08:28:05.316Z,24.43
2022-09-06T08:30:32.984Z,24.59
2022-09-06T08:32:59.727Z,24.69
2022-09-06T08:35:26.185Z,24.92
2022-09-06T08:37:52.857Z,25.23
2022-09-06T08:40:22.379Z,25.43
2022-09-06T08:42:48.878Z,25.57
2022-09-06T08:45:19.315Z,25.73
2022-09-06T08:47:45.795Z,25.74
2022-09-06T08:50:12.359Z,25.77
2022-09-06T08:53:17.893Z,25.15
2022-09-06T08:55:54.199Z,25.26
2022-09-06T08:58:35.746Z,24.84
2022-09-06T09:01:11.346Z,24.91
2022-09-06T09:03:39.884Z,25.52
2022-09-06T09:06:09.232Z,25.43
2022-09-06T09:08:47.982Z,24.60
2022-09-06T09:11:17.910Z,24.53
2022-09-06T09:13:55.625Z,24.73
2022-09-06T09:16:22.867Z,25.50
2022-09-06T09:18:53.666Z,26.12
2022-09-06T09:21:28.065Z,26.42
2022-09-06T09:24:01.982Z,26.09
2022-09-06T09:26:35.107Z,26.07
2022-09-06T09:29:03.874Z,25.96
2022-09-06T09:31:36.083Z,25.98
2022-09-06T09:34:04.862Z,26.00
2022-09-06T09:36:32.865Z,26.48
2022-09-06T09:39:00.002Z,26.86
2022-09-06T09:41:32.861Z,27.28
2022-09-06T09:44:05.104Z,27.40
2022-09-06T09:46:36.826Z,27.36
2022-09-06T09:49:11.171Z,27.42
2022-09-06T09:51:43.341Z,27.66
2022-09-06T09:54:29.465Z,27.91
2022-09-06T09:56:56.871Z,27.98
2022-09-06T09:59:37.930Z,28.21
2022-09-06T10:02:41.265Z,28.17
2022-09-06T10:05:13.588Z,28.47
2022-09-06T10:07:51.945Z,28.47
2022-09-06T10:10:33.398Z,28.63
2022-09-06T10:13:07.644Z,28.44
2022-09-06T10:15:40.031Z,28.76
2022-09-06T10:18:06.692Z,28.53
2022-09-06T10:20:56.423Z,28.74
2022-09-06T10:26:53.742Z,29.12
2022-09-06T10:29:34.781Z,29.25
2022-09-06T10:32:32.610Z,29.07
2022-09-06T10:35:13.096Z,28.98
2022-09-06T10:37:47.273Z,29.04
2022-09-06T10:40:30.409Z,29.06
2022-09-06T10:42:59.387Z,29.17
2022-09-06T10:45:59.590Z,28.99
2022-09-06T10:48:44.636Z,28.86
2022-09-06T10:51:21.787Z,28.97
2022-09-06T10:54:07.864Z,28.95
2022-09-06T10:56:49.973Z,28.97
2022-09-06T10:59:41.966Z,28.73
2022-09-06T11:02:42.927Z,28.82
2022-09-06T11:05:38.301Z,28.98
2022-09-06T11:11:08.045Z,29.08
2022-09-06T11:13:34.679Z,28.98
2022-09-06T11:16:27.085Z,29.15
2022-09-06T11:19:02.656Z,29.21
2022-09-06T11:21:48.350Z,29.20
2022-09-06T11:24:22.263Z,29.22
2022-09-06T11:27:13.633Z,29.27
2022-09-06T11:29:45.106Z,29.21
2022-09-06T11:32:50.396Z,29.17
2022-09-06T11:35:28.436Z,29.05
2022-09-06T11:38:05.961Z,29.02
2022-09-06T11:40:47.722Z,29.07
2022-09-06T11:43:38.768Z,28.96
2022-09-06T11:46:05.269Z,28.81
2022-09-06T11:48:36.419Z,28.87
2022-09-06T11:51:11.088Z,29.02
2022-09-06T11:54:06.214Z,29.18
2022-09-06T11:56:59.935Z,29.21
2022-09-06T11:59:34.173Z,29.09
2022-09-06T12:02:03.998Z,28.96
2022-09-06T12:05:00.449Z,28.98
2022-09-06T12:07:31.786Z,28.99
2022-09-06T12:10:01.976Z,29.04
2022-09-06T12:12:50.754Z,29.04
2022-09-06T12:15:30.184Z,29.11
2022-09-06T12:17:59.000Z,28.92
2022-09-06T12:20:47.668Z,28.99
2022-09-06T12:23:35.712Z,28.93
2022-09-06T12:26:04.519Z,28.96
2022-09-06T12:28:49.816Z,28.89
2022-09-06T12:31:36.699Z,28.79
2022-09-06T12:34:14.441Z,28.75
2022-09-06T12:36:57.396Z,28.89
2022-09-06T12:39:24.345Z,28.80
2022-09-06T12:41:56.110Z,29.02
2022-09-06T12:44:36.214Z,29.05
2022-09-06T12:47:06.840Z,28.94
2022-09-06T12:49:33.566Z,29.01
2022-09-06T12:52:29.494Z,29.09
2022-09-06T12:54:55.932Z,29.01
2022-09-06T12:57:24.900Z,28.88
2022-09-06T12:59:56.615Z,28.78
2022-09-06T13:02:26.196Z,28.79
2022-09-06T13:05:02.790Z,28.77
2022-09-06T13:07:31.622Z,28.80
2022-09-06T13:09:58.405Z,28.79
2022-09-06T13:12:33.370Z,28.73
2022-09-06T13:15:19.536Z,28.79
2022-09-06T13:17:46.414Z,28.83
2022-09-06T13:20:22.701Z,28.93
2022-09-06T13:22:51.300Z,28.97
2022-09-06T13:25:21.055Z,29.00
2022-09-06T13:27:50.883Z,29.03
2022-09-06T13:30:34.096Z,29.01
2022-09-06T13:33:02.134Z,28.95
2022-09-06T13:35:31.624Z,29.03
2022-09-06T13:38:43.070Z,29.01
2022-09-06T13:41:24.615Z,29.04
2022-09-06T13:44:04.225Z,29.09
2022-09-06T13:46:32.462Z,29.10
2022-09-06T13:48:59.271Z,29.17
2022-09-06T13:51:28.396Z,29.21
2022-09-06T13:54:12.854Z,29.30
2022-09-06T13:56:40.949Z,29.17
2022-09-06T13:59:11.686Z,29.19
2022-09-06T14:01:40.208Z,29.30
2022-09-06T14:04:07.262Z,29.41
2022-09-06T14:06:36.928Z,29.45
2022-09-06T14:09:07.455Z,29.46
2022-09-06T14:11:34.870Z,29.51
2022-09-06T14:14:01.309Z,29.56
2022-09-06T14:16:27.734Z,29.61
2022-09-06T14:18:54.266Z,29.66
2022-09-06T14:21:20.690Z,29.54
2022-09-06T14:23:51.367Z,29.49
2022-09-06T14:26:19.036Z,29.54
2022-09-06T14:28:45.656Z,29.45
2022-09-06T14:31:15.209Z,29.44
2022-09-06T14:33:42.125Z,29.42
2022-09-06T14:36:10.579Z,29.36
2022-09-06T14:38:38.358Z,29.38
2022-09-06T14:41:05.548Z,29.49
2022-09-06T14:43:32.798Z,29.56
2022-09-06T14:46:14.199Z,29.64
2022-09-06T14:48:42.759Z,29.48
2022-09-06T14:51:14.221Z,29.29
2022-09-06T14:53:42.319Z,29.21
2022-09-06T14:56:10.173Z,29.19
2022-09-06T14:58:38.381Z,29.26
2022-09-06T15:01:13.100Z,29.10
2022-09-06T15:03:48.821Z,28.72
2022-09-06T15:06:16.353Z,28.32
2022-09-06T15:08:43.238Z,28.21
2022-09-06T15:11:10.041Z,27.71
2022-09-06T15:13:37.486Z,27.25
2022-09-06T15:16:05.815Z,26.78
2022-09-06T15:18:33.189Z,26.25
2022-09-06T15:21:09.698Z,25.82
2022-09-06T15:23:36.720Z,25.67
2022-09-06T15:26:03.428Z,25.63
2022-09-06T15:28:29.833Z,25.31
2022-09-06T15:30:56.300Z,25.48
2022-09-06T15:33:22.892Z,25.65
2022-09-06T15:35:57.206Z,25.94
2022-09-06T15:38:23.898Z,26.26
2022-09-06T15:40:50.816Z,26.43
2022-09-06T15:43:17.315Z,26.52
2022-09-06T15:45:49.247Z,26.60
2022-09-06T15:48:17.377Z,26.53
2022-09-06T15:50:51.393Z,26.13
2022-09-06T15:53:19.625Z,25.92
2022-09-06T15:56:12.380Z,25.88
2022-09-06T15:58:39.080Z,25.73
2022-09-06T16:01:09.272Z,25.65
2022-09-06T16:03:38.566Z,25.80
2022-09-06T16:08:55.169Z,25.87
2022-09-06T16:11:21.741Z,25.98
2022-09-06T16:13:48.877Z,26.06
2022-09-06T16:16:16.682Z,26.02
2022-09-06T16:18:46.388Z,26.01
2022-09-06T16:21:23.769Z,26.10
2022-09-06T16:23:53.495Z,26.05
2022-09-06T16:26:21.748Z,25.93
2022-09-06T16:28:50.231Z,25.90
2022-09-06T16:31:17.891Z,25.85
2022-09-06T16:33:45.698Z,25.50
2022-09-06T16:36:12.896Z,25.46
2022-09-06T16:38:40.050Z,25.57
2022-09-06T16:41:14.495Z,25.52
2022-09-06T16:43:41.301Z,25.53
2022-09-06T16:46:08.267Z,25.36
2022-09-06T16:48:34.944Z,25.39
2022-09-06T16:51:15.701Z,25.32
2022-09-06T16:53:44.300Z,25.26
2022-09-06T16:56:12.519Z,25.09
2022-09-06T16:58:41.991Z,25.14
2022-09-06T17:01:10.013Z,25.05
2022-09-06T17:03:37.436Z,24.85
2022-09-06T17:06:04.337Z,24.92
2022-09-06T17:08:36.351Z,25.01
2022-09-06T17:11:05.320Z,25.01
2022-09-06T17:13:32.098Z,24.93
2022-09-06T17:16:21.915Z,24.89
2022-09-06T17:18:49.420Z,24.89
2022-09-06T17:21:15.851Z,24.95
2022-09-06T17:23:42.381Z,24.85
2022-09-06T17:26:09.075Z,24.86
2022-09-06T17:28:37.181Z,24.83
2022-09-06T17:31:05.370Z,24.78
2022-09-06T17:33:33.014Z,24.62
2022-09-06T17:36:12.293Z,24.47
2022-09-06T17:38:40.027Z,24.47
2022-09-06T17:41:07.160Z,24.48
2022-09-06T17:43:36.263Z,24.48
2022-09-06T17:46:03.827Z,24.50
2022-09-06T17:48:30.415Z,24.44
2022-09-06T17:51:05.021Z,24.19
2022-09-06T17:53:31.835Z,23.63
2022-09-06T17:55:58.462Z,23.00
2022-09-06T17:58:24.970Z,22.40
2022-09-06T18:00:51.567Z,22.29
2022-09-06T18:03:18.038Z,21.97
2022-09-06T18:05:45.183Z,21.84
2022-09-06T18:08:11.753Z,21.67
2022-09-06T18:10:38.647Z,21.58
2022-09-06T18:13:06.121Z,21.63
2022-09-06T18:15:37.974Z,21.45
2022-09-06T18:18:04.662Z,21.46
2022-09-06T18:20:31.478Z,21.25
2022-09-06T18:22:58.311Z,21.14
2022-09-06T18:25:24.885Z,21.03
2022-09-06T18:27:51.368Z,21.00
2022-09-06T18:30:17.925Z,21.07
2022-09-06T18:32:44.762Z,20.96
2022-09-06T18:35:11.471Z,20.94
2022-09-06T18:37:38.546Z,21.04
2022-09-06T18:40:06.071Z,21.27
2022-09-06T18:42:33.340Z,21.45
2022-09-06T18:44:59.816Z,21.35
2022-09-06T18:47:26.278Z,21.61
2022-09-06T18:49:52.713Z,21.65
2022-09-06T18:52:20.775Z,21.73
2022-09-06T18:54:48.913Z,21.78
2022-09-06T18:57:16.405Z,21.87
2022-09-06T18:59:43.093Z,21.79
2022-09-06T19:02:09.687Z,21.91
2022-09-06T19:04:36.334Z,21.84
2022-09-06T19:07:03.781Z,21.77
2022-09-06T19:09:30.299Z,21.77
2022-09-06T19:11:56.765Z,21.64
2022-09-06T19:14:23.339Z,21.50
2022-09-06T19:16:51.539Z,21.22
2022-09-06T19:19:18.178Z,21.09
2022-09-06T19:21:44.643Z,20.96
2022-09-06T19:24:12.406Z,20.82
2022-09-06T19:26:42.039Z,20.67
2022-09-06T19:29:13.101Z,20.39
2022-09-06T19:31:39.564Z,19.94
2022-09-06T19:34:06.552Z,19.82
2022-09-06T19:36:33.752Z,19.78
2022-09-06T19:39:06.270Z,19.84
2022-09-06T19:41:36.344Z,19.97
2022-09-06T19:44:05.614Z,20.08
2022-09-06T19:46:32.215Z,20.18
2022-09-06T19:48:58.769Z,20.26
2022-09-06T19:51:25.667Z,20.37
2022-09-06T19:53:54.360Z,20.35
2022-09-06T19:56:24.459Z,20.33
2022-09-06T19:58:58.567Z,20.50
2022-09-06T20:01:29.168Z,20.52
2022-09-06T20:03:55.927Z,20.58
2022-09-06T20:06:22.907Z,20.60
2022-09-06T20:08:54.218Z,20.63
2022-09-06T20:11:22.861Z,20.63
2022-09-06T20:13:49.404Z,20.47
2022-09-06T20:16:18.545Z,20.38
2022-09-06T20:18:46.872Z,20.36
2022-09-06T20:21:13.892Z,20.27
2022-09-06T20:23:40.862Z,19.98
2022-09-06T20:26:09.643Z,20.06
2022-09-06T20:28:37.050Z,19.95
2022-09-06T20:31:09.110Z,20.08
2022-09-06T20:33:36.365Z,19.91
2022-09-06T20:36:05.807Z,19.96
2022-09-06T20:38:35.214Z,19.86
2022-09-06T20:41:05.025Z,19.92
2022-09-06T20:43:34.377Z,19.90
2022-09-06T20:46:04.152Z,19.99
2022-09-06T20:48:32.732Z,20.01
2022-09-06T20:51:02.542Z,20.05
2022-09-06T20:53:33.573Z,20.14
2022-09-06T20:56:06.230Z,20.04
2022-09-06T20:58:33.494Z,20.17
2022-09-06T21:01:05.299Z,20.05
2022-09-06T21:03:31.842Z,19.98
2022-09-06T21:05:58.307Z,20.02
2022-09-06T21:08:26.050Z,19.80
2022-09-06T21:10:59.437Z,19.80
2022-09-06T21:13:28.230Z,19.88
2022-09-06T21:15:55.777Z,19.71
2022-09-06T21:18:23.365Z,19.58
2022-09-06T21:20:57.921Z,19.70
2022-09-06T21:23:25.038Z,19.58
2022-09-06T21:25:55.558Z,19.37
2022-09-06T21:28:22.530Z,19.50
2022-09-06T21:31:00.398Z,19.58
2022-09-06T21:33:28.871Z,19.68
2022-09-06T21:36:01.153Z,19.70
2022-09-06T21:38:27.660Z,19.63
2022-09-06T21:40:54.112Z,19.70
2022-09-06T21:43:20.515Z,19.51
2022-09-06T21:45:47.075Z,19.54
2022-09-06T21:48:18.108Z,19.50
2022-09-06T21:50:46.817Z,19.39
2022-09-06T21:53:13.915Z,19.21
2022-09-06T21:55:40.910Z,19.31
2022-09-06T21:58:07.826Z,19.15
2022-09-06T22:00:34.935Z,18.90
2022-09-06T22:03:01.848Z,18.66
2022-09-06T22:05:28.668Z,18.78
2022-09-06T22:07:55.170Z,19.02
2022-09-06T22:10:23.641Z,19.06
2022-09-06T22:12:50.612Z,19.20
2022-09-06T22:15:18.899Z,19.16
2022-09-06T22:17:45.391Z,19.08
2022-09-06T22:20:12.181Z,19.06
2022-09-06T22:22:38.813Z,18.85
2022-09-06T22:25:05.895Z,18.81
2022-09-06T22:27:32.338Z,18.71
2022-09-06T22:29:58.777Z,18.74
2022-09-06T22:32:25.335Z,18.54
2022-09-06T22:34:51.874Z,18.50
2022-09-06T22:37:18.290Z,18.54
2022-09-06T22:39:44.864Z,18.56
2022-09-06T22:42:11.396Z,18.56
2022-09-06T22:44:37.918Z,18.48
2022-09-06T22:47:05.163Z,18.49
2022-09-06T22:49:31.587Z,18.58
2022-09-06T22:51:58.248Z,18.59
2022-09-06T22:54:24.711Z,18.68
2022-09-06T22:56:51.209Z,18.42
2022-09-06T22:59:17.791Z,18.48
2022-09-06T23:01:44.371Z,18.46
2022-09-06T23:04:11.120Z,18.48
2022-09-06T23:06:37.694Z,18.54
2022-09-06T23:09:04.589Z,18.51
2022-09-06T23:11:32.554Z,18.20
2022-09-06T23:14:00.618Z,18.43
2022-09-06T23:16:28.195Z,18.41
2022-09-06T23:18:55.318Z,18.44
2022-09-06T23:21:24.433Z,18.43
2022-09-06T23:23:52.767Z,18.42
2022-09-06T23:26:22.206Z,18.57
2022-09-06T23:28:56.425Z,18.58
2022-09-06T23:31:25.496Z,18.44
2022-09-06T23:33:59.759Z,18.38
2022-09-06T23:36:26.969Z,18.27
2022-09-06T23:38:53.545Z,18.40
2022-09-06T23:41:20.266Z,18.40
2022-09-06T23:43:46.709Z,18.38
2022-09-06T23:46:14.856Z,18.26
2022-09-06T23:48:42.898Z,18.08
2022-09-06T23:51:09.600Z,18.03
2022-09-06T23:53:36.529Z,18.16
2022-09-06T23:56:04.066Z,18.24
2022-09-06T23:58:31.190Z,18.30
